sensor_id;sensor_type;location;lat;lon;timestamp;pressure;altitude;pressure_sealevel;temperature;humidity
9139;BME280;4604;48.616;9.548;2023-02-01T00:00:26;97565.97;;;3.90;97.37
9139;BME280;4604;48.616;9.548;2023-02-01T00:02:53;97559.09;;;4.20;94.59
9139;BME280;4604;48.616;9.548;2023-02-01T00:05:19;97565.16;;;4.05;94.85
9139;BME280;4604;48.616;9.548;2023-02-01T00:07:47;97554.84;;;3.86;95.34
9139;BME280;4604;48.616;9.548;2023-02-01T00:10:14;97565.97;;;3.90;96.44
9139;BME280;4604;48.616;9.548;2023-02-01T00:12:41;97564.28;;;3.89;97.05
9139;BME280;4604;48.616;9.548;2023-02-01T00:15:09;97560.97;;;3.85;97.58
9139;BME280;4604;48.616;9.548;2023-02-01T00:17:36;97561.91;;;3.84;98.66
9139;BME280;4604;48.616;9.548;2023-02-01T00:20:03;97563.69;;;3.83;99.42
9139;BME280;4604;48.616;9.548;2023-02-01T00:22:30;97554.25;;;3.81;100.00
9139;BME280;4604;48.616;9.548;2023-02-01T00:24:56;97547.44;;;3.94;100.00
9139;BME280;4604;48.616;9.548;2023-02-01T00:27:23;97551.00;;;3.93;100.00
9139;BME280;4604;48.616;9.548;2023-02-01T00:29:49;97541.81;;;3.86;100.00
9139;BME280;4604;48.616;9.548;2023-02-01T00:32:17;97527.22;;;3.82;100.00
9139;BME280;4604;48.616;9.548;2023-02-01T00:34:44;97537.81;;;3.95;99.59
9139;BME280;4604;48.616;9.548;2023-02-01T00:37:10;97533.72;;;3.91;99.62
9139;BME280;4604;48.616;9.548;2023-02-01T00:39:37;97542.16;;;3.96;99.84
9139;BME280;4604;48.616;9.548;2023-02-01T00:42:04;97545.41;;;3.99;98.44
9139;BME280;4604;48.616;9.548;2023-02-01T00:44:30;97533.31;;;3.98;97.50
9139;BME280;4604;48.616;9.548;2023-02-01T00:46:59;97546.78;;;4.06;97.24
9139;BME280;4604;48.616;9.548;2023-02-01T00:49:28;97547.59;;;4.07;97.15
9139;BME280;4604;48.616;9.548;2023-02-01T00:51:55;97532.94;;;4.04;97.30
9139;BME280;4604;48.616;9.548;2023-02-01T00:54:21;97530.69;;;3.98;96.52
9139;BME280;4604;48.616;9.548;2023-02-01T00:56:48;97521.91;;;3.99;95.75
9139;BME280;4604;48.616;9.548;2023-02-01T00:59:15;97558.41;;;4.01;96.12
9139;BME280;4604;48.616;9.548;2023-02-01T01:01:41;97510.47;;;4.02;96.10
9139;BME280;4604;48.616;9.548;2023-02-01T01:04:08;97521.59;;;4.05;95.79
9139;BME280;4604;48.616;9.548;2023-02-01T01:06:36;97518.72;;;4.10;96.11
9139;BME280;4604;48.616;9.548;2023-02-01T01:09:05;97525.22;;;4.03;96.38
9139;BME280;4604;48.616;9.548;2023-02-01T01:11:34;97513.75;;;4.21;94.77
9139;BME280;4604;48.616;9.548;2023-02-01T01:14:02;97502.19;;;4.10;95.78
9139;BME280;4604;48.616;9.548;2023-02-01T01:16:30;97508.34;;;4.08;96.01
9139;BME280;4604;48.616;9.548;2023-02-01T01:18:57;97523.09;;;4.10;96.71
9139;BME280;4604;48.616;9.548;2023-02-01T01:21:25;97516.97;;;4.11;97.12
9139;BME280;4604;48.616;9.548;2023-02-01T01:23:53;97512.13;;;4.19;96.27
9139;BME280;4604;48.616;9.548;2023-02-01T01:26:22;97509.63;;;4.17;96.30
9139;BME280;4604;48.616;9.548;2023-02-01T01:28:49;97503.97;;;4.25;95.83
9139;BME280;4604;48.616;9.548;2023-02-01T01:31:17;97493.53;;;4.25;94.85
9139;BME280;4604;48.616;9.548;2023-02-01T01:33:47;97504.31;;;4.19;94.76
9139;BME280;4604;48.616;9.548;2023-02-01T01:36:14;97501.94;;;4.14;95.02
9139;BME280;4604;48.616;9.548;2023-02-01T01:38:41;97506.78;;;4.22;94.04
9139;BME280;4604;48.616;9.548;2023-02-01T01:41:13;97508.88;;;4.15;94.54
9139;BME280;4604;48.616;9.548;2023-02-01T01:43:54;97509.97;;;4.11;94.47
9139;BME280;4604;48.616;9.548;2023-02-01T01:46:23;97512.91;;;4.21;93.79
9139;BME280;4604;48.616;9.548;2023-02-01T01:48:54;97515.84;;;4.31;93.21
9139;BME280;4604;48.616;9.548;2023-02-01T01:51:24;97516.84;;;4.28;93.08
9139;BME280;4604;48.616;9.548;2023-02-01T01:53:57;97517.69;;;4.28;92.60
9139;BME280;4604;48.616;9.548;2023-02-01T01:56:28;97518.19;;;4.19;93.84
9139;BME280;4604;48.616;9.548;2023-02-01T01:58:55;97525.44;;;4.14;94.38
9139;BME280;4604;48.616;9.548;2023-02-01T02:01:22;97526.22;;;4.16;94.56
9139;BME280;4604;48.616;9.548;2023-02-01T02:03:50;97517.13;;;4.23;93.22
9139;BME280;4604;48.616;9.548;2023-02-01T02:06:28;97514.31;;;4.26;94.01
9139;BME280;4604;48.616;9.548;2023-02-01T02:08:57;97509.19;;;4.25;93.41
9139;BME280;4604;48.616;9.548;2023-02-01T02:11:24;97500.69;;;4.21;93.17
9139;BME280;4604;48.616;9.548;2023-02-01T02:13:54;97509.97;;;4.27;93.00
9139;BME280;4604;48.616;9.548;2023-02-01T02:16:39;97485.50;;;4.28;91.86
9139;BME280;4604;48.616;9.548;2023-02-01T02:19:28;97495.03;;;4.29;92.36
9139;BME280;4604;48.616;9.548;2023-02-01T02:22:26;97485.31;;;4.31;90.71
9139;BME280;4604;48.616;9.548;2023-02-01T02:25:24;97478.66;;;4.41;89.69
9139;BME280;4604;48.616;9.548;2023-02-01T02:27:59;97481.19;;;4.43;90.65
9139;BME280;4604;48.616;9.548;2023-02-01T02:30:43;97480.88;;;4.33;90.56
9139;BME280;4604;48.616;9.548;2023-02-01T02:33:46;97483.03;;;4.41;90.90
9139;BME280;4604;48.616;9.548;2023-02-01T02:36:19;97490.72;;;4.44;91.50
9139;BME280;4604;48.616;9.548;2023-02-01T02:38:54;97473.09;;;4.47;91.00
9139;BME280;4604;48.616;9.548;2023-02-01T02:41:30;97468.94;;;4.43;91.41
9139;BME280;4604;48.616;9.548;2023-02-01T02:44:22;97470.22;;;4.52;90.62
9139;BME280;4604;48.616;9.548;2023-02-01T02:47:13;97465.75;;;4.54;90.58
9139;BME280;4604;48.616;9.548;2023-02-01T02:49:55;97476.22;;;4.38;91.56
9139;BME280;4604;48.616;9.548;2023-02-01T02:52:44;97459.03;;;4.34;92.33
9139;BME280;4604;48.616;9.548;2023-02-01T02:55:31;97458.06;;;4.51;92.12
9139;BME280;4604;48.616;9.548;2023-02-01T02:58:02;97463.72;;;4.43;92.05
9139;BME280;4604;48.616;9.548;2023-02-01T03:00:49;97473.91;;;4.48;92.07
9139;BME280;4604;48.616;9.548;2023-02-01T03:03:36;97455.34;;;4.53;91.95
9139;BME280;4604;48.616;9.548;2023-02-01T03:06:22;97470.97;;;4.38;93.23
9139;BME280;4604;48.616;9.548;2023-02-01T03:08:49;97464.94;;;4.38;95.09
9139;BME280;4604;48.616;9.548;2023-02-01T03:11:20;97467.63;;;4.36;95.97
9139;BME280;4604;48.616;9.548;2023-02-01T03:13:51;97463.50;;;4.32;97.15
9139;BME280;4604;48.616;9.548;2023-02-01T03:16:20;97460.31;;;4.27;98.21
9139;BME280;4604;48.616;9.548;2023-02-01T03:18:54;97449.69;;;4.14;99.75
9139;BME280;4604;48.616;9.548;2023-02-01T03:21:28;97472.03;;;4.20;99.91
9139;BME280;4604;48.616;9.548;2023-02-01T03:24:00;97485.25;;;4.17;100.00
9139;BME280;4604;48.616;9.548;2023-02-01T03:26:31;97469.59;;;4.17;100.00
9139;BME280;4604;48.616;9.548;2023-02-01T03:29:07;97485.25;;;4.33;100.00
9139;BME280;4604;48.616;9.548;2023-02-01T03:31:35;97493.53;;;4.09;100.00
9139;BME280;4604;48.616;9.548;2023-02-01T03:34:02;97475.59;;;4.03;100.00
9139;BME280;4604;48.616;9.548;2023-02-01T03:36:35;97461.97;;;3.98;100.00
9139;BME280;4604;48.616;9.548;2023-02-01T03:39:07;97454.53;;;3.90;100.00
9139;BME280;4604;48.616;9.548;2023-02-01T03:41:40;97462.03;;;4.12;100.00
9139;BME280;4604;48.616;9.548;2023-02-01T03:44:12;97442.03;;;4.11;100.00
9139;BME280;4604;48.616;9.548;2023-02-01T03:46:42;97424.69;;;4.10;100.00
9139;BME280;4604;48.616;9.548;2023-02-01T03:49:16;97423.56;;;4.14;100.00
9139;BME280;4604;48.616;9.548;2023-02-01T03:51:47;97448.69;;;4.17;100.00
9139;BME280;4604;48.616;9.548;2023-02-01T03:54:17;97467.25;;;4.12;100.00
9139;BME280;4604;48.616;9.548;2023-02-01T03:56:46;97462.44;;;4.20;99.98
9139;BME280;4604;48.616;9.548;2023-02-01T03:59:14;97453.47;;;4.40;98.95
9139;BME280;4604;48.616;9.548;2023-02-01T04:01:41;97449.88;;;4.27;96.79
9139;BME280;4604;48.616;9.548;2023-02-01T04:04:08;97447.28;;;4.41;97.32
9139;BME280;4604;48.616;9.548;2023-02-01T04:06:34;97445.09;;;4.49;96.79
9139;BME280;4604;48.616;9.548;2023-02-01T04:09:02;97426.88;;;4.48;98.54
9139;BME280;4604;48.616;9.548;2023-02-01T04:11:29;97426.69;;;4.37;99.38
9139;BME280;4604;48.616;9.548;2023-02-01T04:13:56;97437.19;;;4.35;98.18
9139;BME280;4604;48.616;9.548;2023-02-01T04:16:22;97420.25;;;4.42;97.77
9139;BME280;4604;48.616;9.548;2023-02-01T04:18:49;97424.53;;;4.43;97.00
9139;BME280;4604;48.616;9.548;2023-02-01T04:21:16;97426.03;;;4.47;96.35
9139;BME280;4604;48.616;9.548;2023-02-01T04:23:42;97419.97;;;4.47;96.30
9139;BME280;4604;48.616;9.548;2023-02-01T04:26:10;97421.91;;;4.43;96.39
9139;BME280;4604;48.616;9.548;2023-02-01T04:28:37;97426.97;;;4.46;94.96
9139;BME280;4604;48.616;9.548;2023-02-01T04:31:04;97416.16;;;4.53;92.86
9139;BME280;4604;48.616;9.548;2023-02-01T04:33:30;97422.59;;;4.47;93.83
9139;BME280;4604;48.616;9.548;2023-02-01T04:35:57;97420.06;;;4.45;94.22
9139;BME280;4604;48.616;9.548;2023-02-01T04:38:24;97427.06;;;4.45;94.53
9139;BME280;4604;48.616;9.548;2023-02-01T04:40:50;97409.00;;;4.56;92.86
9139;BME280;4604;48.616;9.548;2023-02-01T04:43:18;97402.09;;;4.69;90.47
9139;BME280;4604;48.616;9.548;2023-02-01T04:45:48;97422.94;;;4.71;90.58
9139;BME280;4604;48.616;9.548;2023-02-01T04:48:15;97429.03;;;4.56;91.55
9139;BME280;4604;48.616;9.548;2023-02-01T04:50:42;97444.81;;;4.54;91.70
9139;BME280;4604;48.616;9.548;2023-02-01T04:53:10;97452.41;;;4.59;91.47
9139;BME280;4604;48.616;9.548;2023-02-01T04:55:37;97441.38;;;4.54;92.03
9139;BME280;4604;48.616;9.548;2023-02-01T04:58:03;97438.16;;;4.48;92.15
9139;BME280;4604;48.616;9.548;2023-02-01T05:00:31;97442.03;;;4.57;92.57
9139;BME280;4604;48.616;9.548;2023-02-01T05:02:58;97414.97;;;4.72;91.10
9139;BME280;4604;48.616;9.548;2023-02-01T05:05:25;97402.28;;;4.66;90.64
9139;BME280;4604;48.616;9.548;2023-02-01T05:07:52;97427.09;;;4.59;91.06
9139;BME280;4604;48.616;9.548;2023-02-01T05:10:19;97419.66;;;4.82;89.50
9139;BME280;4604;48.616;9.548;2023-02-01T05:12:46;97416.38;;;4.64;89.23
9139;BME280;4604;48.616;9.548;2023-02-01T05:15:32;97424.31;;;4.62;88.60
9139;BME280;4604;48.616;9.548;2023-02-01T05:17:59;97415.09;;;4.71;88.86
9139;BME280;4604;48.616;9.548;2023-02-01T05:20:25;97436.28;;;4.66;88.57
9139;BME280;4604;48.616;9.548;2023-02-01T05:22:52;97431.31;;;4.62;88.70
9139;BME280;4604;48.616;9.548;2023-02-01T05:25:18;97403.38;;;4.62;89.28
9139;BME280;4604;48.616;9.548;2023-02-01T05:27:45;97407.22;;;4.57;89.46
9139;BME280;4604;48.616;9.548;2023-02-01T05:30:12;97422.25;;;4.67;88.28
9139;BME280;4604;48.616;9.548;2023-02-01T05:32:40;97416.94;;;4.69;88.50
9139;BME280;4604;48.616;9.548;2023-02-01T05:35:08;97430.59;;;4.74;88.34
9139;BME280;4604;48.616;9.548;2023-02-01T05:37:35;97419.16;;;4.61;89.70
9139;BME280;4604;48.616;9.548;2023-02-01T05:40:02;97420.78;;;4.63;89.60
9139;BME280;4604;48.616;9.548;2023-02-01T05:42:29;97429.03;;;4.56;90.10
9139;BME280;4604;48.616;9.548;2023-02-01T05:44:55;97426.28;;;4.59;89.52
9139;BME280;4604;48.616;9.548;2023-02-01T05:47:22;97427.75;;;4.63;87.19
9139;BME280;4604;48.616;9.548;2023-02-01T05:49:50;97421.50;;;4.65;87.41
9139;BME280;4604;48.616;9.548;2023-02-01T05:52:17;97421.59;;;4.64;86.75
9139;BME280;4604;48.616;9.548;2023-02-01T05:54:44;97434.50;;;4.67;86.22
9139;BME280;4604;48.616;9.548;2023-02-01T05:57:11;97441.28;;;4.55;87.53
9139;BME280;4604;48.616;9.548;2023-02-01T05:59:38;97434.56;;;4.65;87.23
9139;BME280;4604;48.616;9.548;2023-02-01T06:02:06;97428.88;;;4.59;87.22
9139;BME280;4604;48.616;9.548;2023-02-01T06:04:33;97431.13;;;4.65;87.71
9139;BME280;4604;48.616;9.548;2023-02-01T06:07:01;97443.81;;;4.57;88.12
9139;BME280;4604;48.616;9.548;2023-02-01T06:09:27;97441.00;;;4.60;89.68
9139;BME280;4604;48.616;9.548;2023-02-01T06:11:54;97452.75;;;4.53;91.02
9139;BME280;4604;48.616;9.548;2023-02-01T06:14:20;97441.84;;;4.60;91.63
9139;BME280;4604;48.616;9.548;2023-02-01T06:16:47;97448.63;;;4.48;92.51
9139;BME280;4604;48.616;9.548;2023-02-01T06:19:14;97465.47;;;4.59;91.94
9139;BME280;4604;48.616;9.548;2023-02-01T06:21:41;97461.22;;;4.42;94.31
9139;BME280;4604;48.616;9.548;2023-02-01T06:24:09;97458.81;;;4.53;96.31
9139;BME280;4604;48.616;9.548;2023-02-01T06:26:36;97454.22;;;4.26;100.00
9139;BME280;4604;48.616;9.548;2023-02-01T06:29:04;97448.75;;;4.31;99.68
9139;BME280;4604;48.616;9.548;2023-02-01T06:31:32;97468.75;;;4.16;100.00
9139;BME280;4604;48.616;9.548;2023-02-01T06:33:58;97420.56;;;4.22;100.00
9139;BME280;4604;48.616;9.548;2023-02-01T06:36:25;97440.69;;;4.20;99.87
9139;BME280;4604;48.616;9.548;2023-02-01T06:38:52;97424.25;;;4.18;100.00
9139;BME280;4604;48.616;9.548;2023-02-01T06:41:20;97429.66;;;4.15;100.00
9139;BME280;4604;48.616;9.548;2023-02-01T06:43:47;97421.28;;;4.24;100.00
9139;BME280;4604;48.616;9.548;2023-02-01T06:46:14;97407.59;;;4.04;100.00
9139;BME280;4604;48.616;9.548;2023-02-01T06:48:40;97379.19;;;4.14;100.00
9139;BME280;4604;48.616;9.548;2023-02-01T06:51:18;97421.28;;;4.24;100.00
9139;BME280;4604;48.616;9.548;2023-02-01T06:53:45;97413.44;;;4.24;98.26
9139;BME280;4604;48.616;9.548;2023-02-01T06:56:12;97386.16;;;4.29;96.78
9139;BME280;4604;48.616;9.548;2023-02-01T06:58:40;97395.31;;;4.37;94.52
9139;BME280;4604;48.616;9.548;2023-02-01T07:01:08;97433.06;;;4.31;95.58
9139;BME280;4604;48.616;9.548;2023-02-01T07:03:35;97384.97;;;4.49;93.01
9139;BME280;4604;48.616;9.548;2023-02-01T07:06:03;97401.88;;;4.58;89.01
9139;BME280;4604;48.616;9.548;2023-02-01T07:08:31;97395.63;;;4.61;88.84
9139;BME280;4604;48.616;9.548;2023-02-01T07:11:01;97417.56;;;4.58;89.62
9139;BME280;4604;48.616;9.548;2023-02-01T07:13:28;97423.84;;;4.70;89.80
9139;BME280;4604;48.616;9.548;2023-02-01T07:15:59;97435.69;;;4.61;89.74
9139;BME280;4604;48.616;9.548;2023-02-01T07:18:26;97443.69;;;4.58;91.53
9139;BME280;4604;48.616;9.548;2023-02-01T07:20:52;97463.78;;;4.58;90.40
9139;BME280;4604;48.616;9.548;2023-02-01T07:23:19;97454.25;;;4.57;90.53
9139;BME280;4604;48.616;9.548;2023-02-01T07:25:46;97474.41;;;4.55;91.84
9139;BME280;4604;48.616;9.548;2023-02-01T07:28:13;97467.59;;;4.52;92.20
9139;BME280;4604;48.616;9.548;2023-02-01T07:30:39;97471.22;;;4.49;93.78
9139;BME280;4604;48.616;9.548;2023-02-01T07:33:08;97474.94;;;4.45;94.54
9139;BME280;4604;48.616;9.548;2023-02-01T07:35:35;97461.78;;;4.47;95.30
9139;BME280;4604;48.616;9.548;2023-02-01T07:38:01;97468.56;;;4.35;95.68
9139;BME280;4604;48.616;9.548;2023-02-01T07:40:28;97470.53;;;4.46;93.62
9139;BME280;4604;48.616;9.548;2023-02-01T07:42:55;97483.72;;;4.44;92.99
9139;BME280;4604;48.616;9.548;2023-02-01T07:45:22;97489.84;;;4.43;93.84
9139;BME280;4604;48.616;9.548;2023-02-01T07:47:51;97490.81;;;4.42;93.38
9139;BME280;4604;48.616;9.548;2023-02-01T07:50:20;97487.44;;;4.40;93.02
9139;BME280;4604;48.616;9.548;2023-02-01T07:52:46;97487.59;;;4.37;93.58
9139;BME280;4604;48.616;9.548;2023-02-01T07:55:13;97492.72;;;4.39;93.90
9139;BME280;4604;48.616;9.548;2023-02-01T07:57:39;97479.28;;;4.61;92.46
9139;BME280;4604;48.616;9.548;2023-02-01T08:00:08;97472.91;;;4.50;91.93
9139;BME280;4604;48.616;9.548;2023-02-01T08:02:52;97481.81;;;4.62;90.27
9139;BME280;4604;48.616;9.548;2023-02-01T08:05:20;97484.34;;;4.64;90.61
9139;BME280;4604;48.616;9.548;2023-02-01T08:07:48;97480.03;;;4.63;91.63
9139;BME280;4604;48.616;9.548;2023-02-01T08:10:15;97461.41;;;4.53;91.96
9139;BME280;4604;48.616;9.548;2023-02-01T08:12:42;97466.88;;;4.64;89.35
9139;BME280;4604;48.616;9.548;2023-02-01T08:15:13;97470.16;;;4.68;87.96
9139;BME280;4604;48.616;9.548;2023-02-01T08:17:40;97486.78;;;4.67;88.76
9139;BME280;4604;48.616;9.548;2023-02-01T08:20:08;97503.16;;;4.55;89.00
9139;BME280;4604;48.616;9.548;2023-02-01T08:22:36;97496.84;;;4.59;89.21
9139;BME280;4604;48.616;9.548;2023-02-01T08:25:04;97496.22;;;4.69;87.28
9139;BME280;4604;48.616;9.548;2023-02-01T08:27:32;97482.13;;;4.72;86.83
9139;BME280;4604;48.616;9.548;2023-02-01T08:29:59;97481.28;;;4.71;84.56
9139;BME280;4604;48.616;9.548;2023-02-01T08:32:25;97464.38;;;4.77;85.35
9139;BME280;4604;48.616;9.548;2023-02-01T08:34:52;97461.25;;;4.86;83.74
9139;BME280;4604;48.616;9.548;2023-02-01T08:37:19;97469.16;;;4.85;83.80
9139;BME280;4604;48.616;9.548;2023-02-01T08:39:47;97463.03;;;4.86;82.86
9139;BME280;4604;48.616;9.548;2023-02-01T08:42:16;97469.56;;;4.93;83.67
9139;BME280;4604;48.616;9.548;2023-02-01T08:45:09;97469.66;;;4.91;81.84
9139;BME280;4604;48.616;9.548;2023-02-01T08:47:35;97476.97;;;5.01;82.37
9139;BME280;4604;48.616;9.548;2023-02-01T08:50:02;97479.28;;;4.91;81.99
9139;BME280;4604;48.616;9.548;2023-02-01T08:52:29;97494.91;;;5.07;81.85
9139;BME280;4604;48.616;9.548;2023-02-01T08:54:57;97519.56;;;5.03;82.36
9139;BME280;4604;48.616;9.548;2023-02-01T08:57:24;97506.94;;;4.95;82.30
9139;BME280;4604;48.616;9.548;2023-02-01T08:59:50;97508.53;;;4.98;81.35
9139;BME280;4604;48.616;9.548;2023-02-01T09:02:17;97501.72;;;4.95;80.98
9139;BME280;4604;48.616;9.548;2023-02-01T09:04:44;97509.56;;;4.95;81.46
9139;BME280;4604;48.616;9.548;2023-02-01T09:07:11;97514.66;;;4.82;83.39
9139;BME280;4604;48.616;9.548;2023-02-01T09:09:38;97508.50;;;4.83;83.62
9139;BME280;4604;48.616;9.548;2023-02-01T09:12:06;97506.25;;;4.91;82.55
9139;BME280;4604;48.616;9.548;2023-02-01T09:14:33;97510.47;;;4.94;82.39
9139;BME280;4604;48.616;9.548;2023-02-01T09:16:59;97507.28;;;4.89;82.57
9139;BME280;4604;48.616;9.548;2023-02-01T09:19:26;97503.38;;;4.96;83.86
9139;BME280;4604;48.616;9.548;2023-02-01T09:21:53;97510.31;;;5.11;81.73
9139;BME280;4604;48.616;9.548;2023-02-01T09:24:19;97520.84;;;4.96;81.51
9139;BME280;4604;48.616;9.548;2023-02-01T09:26:46;97509.59;;;4.79;82.33
9139;BME280;4604;48.616;9.548;2023-02-01T09:29:14;97539.78;;;4.85;82.37
9139;BME280;4604;48.616;9.548;2023-02-01T09:31:41;97542.22;;;4.88;82.58
9139;BME280;4604;48.616;9.548;2023-02-01T09:34:08;97545.75;;;4.87;81.98
9139;BME280;4604;48.616;9.548;2023-02-01T09:36:36;97529.56;;;4.80;81.84
9139;BME280;4604;48.616;9.548;2023-02-01T09:39:03;97542.50;;;4.83;82.45
9139;BME280;4604;48.616;9.548;2023-02-01T09:41:37;97545.31;;;4.94;81.14
9139;BME280;4604;48.616;9.548;2023-02-01T09:44:15;97546.34;;;4.92;82.32
9139;BME280;4604;48.616;9.548;2023-02-01T09:46:44;97544.25;;;4.83;82.05
9139;BME280;4604;48.616;9.548;2023-02-01T09:49:14;97542.66;;;4.80;82.54
9139;BME280;4604;48.616;9.548;2023-02-01T09:51:44;97554.44;;;4.87;81.38
9139;BME280;4604;48.616;9.548;2023-02-01T09:54:15;97547.53;;;4.86;82.53
9139;BME280;4604;48.616;9.548;2023-02-01T09:56:48;97535.00;;;4.77;82.37
9139;BME280;4604;48.616;9.548;2023-02-01T09:59:29;97549.25;;;5.02;81.19
9139;BME280;4604;48.616;9.548;2023-02-01T10:01:58;97543.94;;;5.03;82.12
9139;BME280;4604;48.616;9.548;2023-02-01T10:04:26;97539.63;;;5.02;80.28
9139;BME280;4604;48.616;9.548;2023-02-01T10:07:01;97540.75;;;4.98;81.22
9139;BME280;4604;48.616;9.548;2023-02-01T10:09:44;97552.41;;;4.92;81.02
9139;BME280;4604;48.616;9.548;2023-02-01T10:12:37;97543.16;;;4.87;81.74
9139;BME280;4604;48.616;9.548;2023-02-01T10:15:23;97536.31;;;4.84;82.10
9139;BME280;4604;48.616;9.548;2023-02-01T10:18:04;97524.19;;;4.83;80.97
9139;BME280;4604;48.616;9.548;2023-02-01T10:20:44;97535.22;;;4.88;81.33
9139;BME280;4604;48.616;9.548;2023-02-01T10:23:28;97545.56;;;4.90;81.46
9139;BME280;4604;48.616;9.548;2023-02-01T10:26:06;97543.25;;;4.85;81.29
9139;BME280;4604;48.616;9.548;2023-02-01T10:28:37;97557.78;;;5.05;81.31
9139;BME280;4604;48.616;9.548;2023-02-01T10:31:08;97576.44;;;4.99;80.23
9139;BME280;4604;48.616;9.548;2023-02-01T10:33:39;97565.00;;;4.86;81.02
9139;BME280;4604;48.616;9.548;2023-02-01T10:36:14;97565.44;;;4.78;80.55
9139;BME280;4604;48.616;9.548;2023-02-01T10:38:43;97562.53;;;4.83;81.21
9139;BME280;4604;48.616;9.548;2023-02-01T10:41:13;97579.63;;;4.74;82.00
9139;BME280;4604;48.616;9.548;2023-02-01T10:43:42;97590.16;;;4.72;81.37
9139;BME280;4604;48.616;9.548;2023-02-01T10:46:11;97574.72;;;4.68;82.42
9139;BME280;4604;48.616;9.548;2023-02-01T10:48:38;97579.38;;;4.63;82.44
9139;BME280;4604;48.616;9.548;2023-02-01T10:51:10;97579.28;;;4.64;82.06
9139;BME280;4604;48.616;9.548;2023-02-01T10:53:43;97572.03;;;4.69;83.06
9139;BME280;4604;48.616;9.548;2023-02-01T10:56:12;97571.59;;;4.77;81.88
9139;BME280;4604;48.616;9.548;2023-02-01T10:58:44;97566.41;;;4.91;81.11
9139;BME280;4604;48.616;9.548;2023-02-01T11:01:16;97553.47;;;4.74;79.94
9139;BME280;4604;48.616;9.548;2023-02-01T11:03:45;97558.06;;;4.85;80.50
9139;BME280;4604;48.616;9.548;2023-02-01T11:06:24;97573.31;;;4.92;80.21
9139;BME280;4604;48.616;9.548;2023-02-01T11:08:54;97566.59;;;4.88;79.90
9139;BME280;4604;48.616;9.548;2023-02-01T11:11:22;97557.28;;;4.99;79.54
9139;BME280;4604;48.616;9.548;2023-02-01T11:13:57;97556.09;;;5.04;80.12
9139;BME280;4604;48.616;9.548;2023-02-01T11:16:34;97540.94;;;4.95;78.75
9139;BME280;4604;48.616;9.548;2023-02-01T11:19:01;97542.03;;;4.91;78.95
9139;BME280;4604;48.616;9.548;2023-02-01T11:21:28;97539.78;;;4.85;78.56
9139;BME280;4604;48.616;9.548;2023-02-01T11:24:00;97529.63;;;4.94;78.11
9139;BME280;4604;48.616;9.548;2023-02-01T11:26:28;97527.31;;;5.04;78.01
9139;BME280;4604;48.616;9.548;2023-02-01T11:28:58;97535.72;;;4.95;77.53
9139;BME280;4604;48.616;9.548;2023-02-01T11:31:27;97543.75;;;5.06;77.08
9139;BME280;4604;48.616;9.548;2023-02-01T11:33:59;97531.47;;;4.92;76.52
9139;BME280;4604;48.616;9.548;2023-02-01T11:36:29;97520.19;;;4.92;77.75
9139;BME280;4604;48.616;9.548;2023-02-01T11:39:10;97538.34;;;4.95;77.37
9139;BME280;4604;48.616;9.548;2023-02-01T11:41:43;97535.38;;;5.15;76.84
9139;BME280;4604;48.616;9.548;2023-02-01T11:44:20;97522.25;;;5.01;76.92
9139;BME280;4604;48.616;9.548;2023-02-01T11:46:48;97531.88;;;5.01;77.73
9139;BME280;4604;48.616;9.548;2023-02-01T11:49:22;97531.50;;;5.07;77.41
9139;BME280;4604;48.616;9.548;2023-02-01T11:52:09;97507.44;;;5.16;76.31
9139;BME280;4604;48.616;9.548;2023-02-01T11:54:49;97490.72;;;5.19;76.52
9139;BME280;4604;48.616;9.548;2023-02-01T11:57:31;97491.28;;;5.38;75.75
9139;BME280;4604;48.616;9.548;2023-02-01T12:00:09;97492.84;;;5.26;75.44
9139;BME280;4604;48.616;9.548;2023-02-01T12:02:57;97486.97;;;5.23;75.24
9139;BME280;4604;48.616;9.548;2023-02-01T12:05:32;97478.47;;;5.19;75.12
9139;BME280;4604;48.616;9.548;2023-02-01T12:08:12;97468.47;;;5.26;74.88
9139;BME280;4604;48.616;9.548;2023-02-01T12:10:52;97479.88;;;5.25;75.98
9139;BME280;4604;48.616;9.548;2023-02-01T12:13:37;97477.63;;;5.33;74.87
9139;BME280;4604;48.616;9.548;2023-02-01T12:16:16;97491.66;;;5.32;74.58
9139;BME280;4604;48.616;9.548;2023-02-01T12:22:10;97478.19;;;5.38;74.92
9139;BME280;4604;48.616;9.548;2023-02-01T12:24:52;97482.59;;;5.23;74.68
9139;BME280;4604;48.616;9.548;2023-02-01T12:27:41;97482.13;;;5.31;76.01
9139;BME280;4604;48.616;9.548;2023-02-01T12:30:24;97475.28;;;5.28;75.53
9139;BME280;4604;48.616;9.548;2023-02-01T12:33:04;97491.53;;;5.19;76.50
9139;BME280;4604;48.616;9.548;2023-02-01T12:35:44;97466.41;;;5.31;74.95
9139;BME280;4604;48.616;9.548;2023-02-01T12:38:35;97473.16;;;5.21;74.88
9139;BME280;4604;48.616;9.548;2023-02-01T12:41:14;97475.00;;;5.19;75.72
9139;BME280;4604;48.616;9.548;2023-02-01T12:43:48;97477.63;;;5.19;74.52
9139;BME280;4604;48.616;9.548;2023-02-01T12:46:22;97479.31;;;5.20;74.51
9139;BME280;4604;48.616;9.548;2023-02-01T12:48:55;97475.75;;;5.21;74.61
9139;BME280;4604;48.616;9.548;2023-02-01T12:51:26;97476.50;;;5.08;75.86
9139;BME280;4604;48.616;9.548;2023-02-01T12:53:57;97473.13;;;5.06;75.56
9139;BME280;4604;48.616;9.548;2023-02-01T12:56:30;97478.09;;;5.11;74.27
9139;BME280;4604;48.616;9.548;2023-02-01T12:58:59;97478.47;;;5.19;74.30
9139;BME280;4604;48.616;9.548;2023-02-01T13:01:31;97479.69;;;5.13;75.15
9139;BME280;4604;48.616;9.548;2023-02-01T13:04:04;97470.03;;;5.00;74.09
9139;BME280;4604;48.616;9.548;2023-02-01T13:06:38;97480.22;;;5.04;74.59
9139;BME280;4604;48.616;9.548;2023-02-01T13:09:17;97469.47;;;4.94;74.10
9139;BME280;4604;48.616;9.548;2023-02-01T13:11:46;97470.91;;;5.14;73.25
9139;BME280;4604;48.616;9.548;2023-02-01T13:14:22;97470.03;;;5.00;74.12
9139;BME280;4604;48.616;9.548;2023-02-01T13:16:52;97476.41;;;4.96;75.08
9139;BME280;4604;48.616;9.548;2023-02-01T13:19:24;97461.88;;;4.90;75.61
9139;BME280;4604;48.616;9.548;2023-02-01T13:21:56;97445.47;;;5.02;75.09
9139;BME280;4604;48.616;9.548;2023-02-01T13:24:36;97458.84;;;5.12;74.14
9139;BME280;4604;48.616;9.548;2023-02-01T13:27:04;97470.69;;;5.03;73.71
9139;BME280;4604;48.616;9.548;2023-02-01T13:29:33;97470.97;;;4.99;74.14
9139;BME280;4604;48.616;9.548;2023-02-01T13:32:24;97461.53;;;4.96;74.83
9139;BME280;4604;48.616;9.548;2023-02-01T13:35:32;97469.28;;;5.12;73.38
9139;BME280;4604;48.616;9.548;2023-02-01T13:38:34;97467.31;;;4.87;75.23
9139;BME280;4604;48.616;9.548;2023-02-01T13:41:19;97464.03;;;4.83;75.79
9139;BME280;4604;48.616;9.548;2023-02-01T13:43:54;97462.19;;;4.85;75.73
9139;BME280;4604;48.616;9.548;2023-02-01T13:46:22;97453.13;;;4.91;75.35
9139;BME280;4604;48.616;9.548;2023-02-01T13:48:51;97469.63;;;4.77;76.31
9139;BME280;4604;48.616;9.548;2023-02-01T13:51:35;97468.03;;;4.75;76.76
9139;BME280;4604;48.616;9.548;2023-02-01T13:54:04;97460.03;;;4.92;76.37
9139;BME280;4604;48.616;9.548;2023-02-01T13:56:41;97462.56;;;4.93;76.51